AAL559 KPHX-KSAN
Flight info
| Callsign | AAL559 |
|---|---|
| Flight time | 0h 54m |
| Altitude | 30000 |
| Route | FYRBD1 MOHAK J2 HOGGZ LUCKI1 |
| Aircraft | A21N/M-SDE2E3FGHIRWXY/LB1 |
Departure
| Time | 2026-04-26 02:58 |
|---|---|
| Airport | Phoenix Sky Harbor International Airport (KPHX) |
Arrival
| Time | 2026-04-26 03:52 |
|---|---|
| Airport | San Diego International Airport (KSAN) |
| Time | Latitude | Longitude | Altitude | Speed | Heading |
|---|---|---|---|---|---|
| 2026-04-26 02:41 | 33.43831 | -112.00200 | 1166 ft | 0 kts | 173° |
| 2026-04-26 02:50 | 33.43834 | -112.00200 | 1165 ft | 2 kts | 172° |
| 2026-04-26 02:50 | 33.43849 | -112.00203 | 1166 ft | 2 kts | 172° |
| 2026-04-26 02:50 | 33.43864 | -112.00205 | 1166 ft | 2 kts | 172° |
| 2026-04-26 02:50 | 33.43879 | -112.00208 | 1163 ft | 2 kts | 156° |
| 2026-04-26 02:51 | 33.43893 | -112.00216 | 1161 ft | 2 kts | 130° |
| 2026-04-26 02:51 | 33.43901 | -112.00231 | 1164 ft | 2 kts | 104° |
| 2026-04-26 02:51 | 33.43903 | -112.00239 | 1164 ft | 0 kts | 94° |
| 2026-04-26 02:53 | 33.43903 | -112.00212 | 1163 ft | 8 kts | 91° |
| 2026-04-26 02:53 | 33.43902 | -112.00116 | 1161 ft | 15 kts | 90° |
| 2026-04-26 02:53 | 33.43905 | -111.99979 | 1161 ft | 18 kts | 91° |
| 2026-04-26 02:53 | 33.43904 | -111.99817 | 1161 ft | 21 kts | 89° |
| 2026-04-26 02:54 | 33.43905 | -111.99636 | 1162 ft | 23 kts | 90° |
| 2026-04-26 02:54 | 33.43905 | -111.99442 | 1162 ft | 25 kts | 92° |
| 2026-04-26 02:54 | 33.43903 | -111.99274 | 1162 ft | 13 kts | 90° |
| 2026-04-26 02:54 | 33.43850 | -111.99226 | 1164 ft | 11 kts | 179° |
| 2026-04-26 02:55 | 33.43764 | -111.99229 | 1163 ft | 14 kts | 181° |
| 2026-04-26 02:55 | 33.43656 | -111.99233 | 1162 ft | 17 kts | 180° |
| 2026-04-26 02:55 | 33.43533 | -111.99230 | 1165 ft | 19 kts | 179° |
| 2026-04-26 02:55 | 33.43394 | -111.99231 | 1164 ft | 21 kts | 181° |
| 2026-04-26 02:56 | 33.43292 | -111.99230 | 1162 ft | 11 kts | 180° |
| 2026-04-26 02:56 | 33.43229 | -111.99239 | 1165 ft | 6 kts | 204° |
| 2026-04-26 02:56 | 33.43203 | -111.99275 | 1165 ft | 6 kts | 227° |
| 2026-04-26 02:56 | 33.43196 | -111.99284 | 1169 ft | 0 kts | 227° |
| 2026-04-26 02:57 | 33.43189 | -111.99293 | 1166 ft | 4 kts | 227° |
| 2026-04-26 02:57 | 33.43149 | -111.99339 | 1167 ft | 10 kts | 222° |
| 2026-04-26 02:57 | 33.43103 | -111.99415 | 1168 ft | 13 kts | 258° |
| 2026-04-26 02:57 | 33.43104 | -111.99458 | 1168 ft | 6 kts | 269° |
| 2026-04-26 02:58 | 33.43105 | -111.99685 | 1166 ft | 66 kts | 270° |
| 2026-04-26 02:58 | 33.43104 | -112.00561 | 1164 ft | 140 kts | 270° |
| 2026-04-26 02:58 | 33.43111 | -112.01925 | 1320 ft | 183 kts | 271° |
| 2026-04-26 02:58 | 33.43113 | -112.03479 | 2105 ft | 182 kts | 269° |
| 2026-04-26 02:59 | 33.43078 | -112.04944 | 3101 ft | 173 kts | 263° |
| 2026-04-26 02:59 | 33.42820 | -112.06414 | 3671 ft | 189 kts | 250° |
| 2026-04-26 02:59 | 33.42328 | -112.07958 | 4137 ft | 209 kts | 248° |
| 2026-04-26 02:59 | 33.41803 | -112.09691 | 4598 ft | 232 kts | 250° |
| 2026-04-26 03:00 | 33.41260 | -112.11614 | 5148 ft | 254 kts | 250° |
| 2026-04-26 03:00 | 33.40713 | -112.13631 | 6032 ft | 258 kts | 250° |
| 2026-04-26 03:00 | 33.40038 | -112.15615 | 7014 ft | 257 kts | 235° |
| 2026-04-26 03:00 | 33.38779 | -112.17142 | 7909 ft | 260 kts | 212° |
| 2026-04-26 03:01 | 33.38281 | -112.17468 | 8191 ft | 262 kts | 205° |
| 2026-04-26 03:01 | 33.37145 | -112.17877 | 8790 ft | 267 kts | 190° |
| 2026-04-26 03:01 | 33.35256 | -112.17729 | 9646 ft | 280 kts | 167° |
| 2026-04-26 03:01 | 33.33367 | -112.17037 | 10394 ft | 289 kts | 167° |
| 2026-04-26 03:02 | 33.31345 | -112.16523 | 10739 ft | 306 kts | 182° |
| 2026-04-26 03:02 | 33.29213 | -112.16983 | 11072 ft | 318 kts | 205° |
| 2026-04-26 03:02 | 33.27354 | -112.18415 | 11832 ft | 318 kts | 224° |
| 2026-04-26 03:02 | 33.25958 | -112.20421 | 12725 ft | 318 kts | 233° |
| 2026-04-26 03:03 | 33.24611 | -112.22568 | 13582 ft | 320 kts | 233° |
| 2026-04-26 03:03 | 33.23267 | -112.24677 | 14188 ft | 326 kts | 233° |
| 2026-04-26 03:03 | 33.21892 | -112.26818 | 15055 ft | 324 kts | 233° |
| 2026-04-26 03:03 | 33.20504 | -112.28974 | 15790 ft | 327 kts | 233° |
| 2026-04-26 03:04 | 33.19107 | -112.31140 | 16507 ft | 330 kts | 233° |
| 2026-04-26 03:04 | 33.17715 | -112.33298 | 17183 ft | 333 kts | 233° |
| 2026-04-26 03:04 | 33.16296 | -112.35496 | 17895 ft | 335 kts | 233° |
| 2026-04-26 03:04 | 33.14863 | -112.37716 | 18521 ft | 337 kts | 233° |
| 2026-04-26 03:05 | 33.13431 | -112.39933 | 19157 ft | 338 kts | 233° |
| 2026-04-26 03:05 | 33.11992 | -112.42160 | 19785 ft | 339 kts | 233° |
| 2026-04-26 03:05 | 33.10560 | -112.44375 | 20381 ft | 341 kts | 234° |
| 2026-04-26 03:05 | 33.09098 | -112.46635 | 21002 ft | 343 kts | 234° |
| 2026-04-26 03:06 | 33.07635 | -112.48898 | 21607 ft | 345 kts | 234° |
| 2026-04-26 03:06 | 33.06159 | -112.51178 | 22220 ft | 346 kts | 234° |
| 2026-04-26 03:06 | 33.04698 | -112.53432 | 22824 ft | 348 kts | 234° |
| 2026-04-26 03:06 | 33.03209 | -112.55729 | 23379 ft | 351 kts | 234° |
| 2026-04-26 03:07 | 33.01714 | -112.58035 | 23885 ft | 351 kts | 234° |
| 2026-04-26 03:07 | 33.00232 | -112.60318 | 24405 ft | 352 kts | 234° |
| 2026-04-26 03:07 | 32.98721 | -112.62645 | 24859 ft | 354 kts | 234° |
| 2026-04-26 03:07 | 32.97281 | -112.65038 | 25324 ft | 354 kts | 239° |
| 2026-04-26 03:08 | 32.96140 | -112.67645 | 25772 ft | 355 kts | 246° |
| 2026-04-26 03:08 | 32.95331 | -112.70404 | 26200 ft | 358 kts | 253° |
| 2026-04-26 03:08 | 32.94843 | -112.73329 | 26612 ft | 361 kts | 258° |
| 2026-04-26 03:08 | 32.94459 | -112.76311 | 27012 ft | 363 kts | 258° |
| 2026-04-26 03:09 | 32.94067 | -112.79251 | 27413 ft | 364 kts | 258° |
| 2026-04-26 03:09 | 32.93662 | -112.82243 | 27817 ft | 366 kts | 258° |
| 2026-04-26 03:09 | 32.93252 | -112.85260 | 28170 ft | 367 kts | 257° |
| 2026-04-26 03:09 | 32.92849 | -112.88229 | 28503 ft | 369 kts | 257° |
| 2026-04-26 03:10 | 32.92436 | -112.91270 | 28833 ft | 371 kts | 257° |
| 2026-04-26 03:10 | 32.92020 | -112.94325 | 29166 ft | 372 kts | 257° |
| 2026-04-26 03:10 | 32.91611 | -112.97335 | 29472 ft | 374 kts | 257° |
| 2026-04-26 03:10 | 32.91192 | -113.00407 | 29782 ft | 376 kts | 257° |
| 2026-04-26 03:11 | 32.90349 | -113.06571 | 29770 ft | 375 kts | 257° |
| 2026-04-26 03:11 | 32.89509 | -113.12692 | 29762 ft | 376 kts | 257° |
| 2026-04-26 03:12 | 32.88666 | -113.18810 | 29758 ft | 376 kts | 257° |
| 2026-04-26 03:12 | 32.87815 | -113.24963 | 29760 ft | 376 kts | 257° |
| 2026-04-26 03:13 | 32.86966 | -113.31076 | 29764 ft | 375 kts | 257° |
| 2026-04-26 03:13 | 32.86116 | -113.37168 | 29759 ft | 375 kts | 257° |
| 2026-04-26 03:14 | 32.85256 | -113.43313 | 29759 ft | 375 kts | 257° |
| 2026-04-26 03:14 | 32.84400 | -113.49409 | 29763 ft | 374 kts | 257° |
| 2026-04-26 03:15 | 32.83540 | -113.55507 | 29766 ft | 374 kts | 257° |
| 2026-04-26 03:15 | 32.82677 | -113.61614 | 29767 ft | 374 kts | 257° |
| 2026-04-26 03:16 | 32.81813 | -113.67701 | 29770 ft | 374 kts | 257° |
| 2026-04-26 03:16 | 32.80948 | -113.73786 | 29776 ft | 374 kts | 257° |
| 2026-04-26 03:17 | 32.80076 | -113.79889 | 29766 ft | 373 kts | 257° |
| 2026-04-26 03:17 | 32.79208 | -113.85943 | 29781 ft | 373 kts | 256° |
| 2026-04-26 03:18 | 32.78334 | -113.92022 | 29773 ft | 373 kts | 256° |
| 2026-04-26 03:18 | 32.77688 | -113.98179 | 29775 ft | 376 kts | 261° |
| 2026-04-26 03:19 | 32.77518 | -114.04400 | 29785 ft | 378 kts | 264° |
| 2026-04-26 03:19 | 32.77641 | -114.10643 | 29797 ft | 380 kts | 267° |
| 2026-04-26 03:20 | 32.77854 | -114.15865 | 29810 ft | 380 kts | 266° |
| 2026-04-26 03:20 | 32.78103 | -114.22158 | 29797 ft | 380 kts | 266° |
| 2026-04-26 03:21 | 32.78349 | -114.28406 | 29805 ft | 380 kts | 267° |
| 2026-04-26 03:21 | 32.78597 | -114.34676 | 29798 ft | 379 kts | 267° |
| 2026-04-26 03:22 | 32.79430 | -114.40939 | 29810 ft | 388 kts | 277° |
| 2026-04-26 03:22 | 32.81090 | -114.47105 | 29813 ft | 392 kts | 280° |
| 2026-04-26 03:23 | 32.82791 | -114.53273 | 29797 ft | 392 kts | 279° |
| 2026-04-26 03:23 | 32.84475 | -114.59418 | 29804 ft | 392 kts | 279° |
| 2026-04-26 03:24 | 32.86155 | -114.65551 | 29809 ft | 391 kts | 279° |
| 2026-04-26 03:24 | 32.87495 | -114.71765 | 29809 ft | 383 kts | 271° |
| 2026-04-26 03:25 | 32.87832 | -114.78013 | 29810 ft | 373 kts | 263° |
| 2026-04-26 03:25 | 32.87677 | -114.84168 | 29810 ft | 374 kts | 263° |
| 2026-04-26 03:26 | 32.87542 | -114.90370 | 29807 ft | 373 kts | 263° |
| 2026-04-26 03:26 | 32.87405 | -114.96513 | 29808 ft | 373 kts | 263° |
| 2026-04-26 03:27 | 32.87262 | -115.02700 | 29814 ft | 372 kts | 263° |
| 2026-04-26 03:27 | 32.87117 | -115.08822 | 29812 ft | 371 kts | 263° |
| 2026-04-26 03:28 | 32.86969 | -115.14968 | 29746 ft | 369 kts | 262° |
| 2026-04-26 03:28 | 32.86895 | -115.18010 | 29483 ft | 365 kts | 262° |
| 2026-04-26 03:28 | 32.86822 | -115.20990 | 29212 ft | 363 kts | 262° |
| 2026-04-26 03:29 | 32.86746 | -115.24004 | 28944 ft | 362 kts | 262° |
| 2026-04-26 03:29 | 32.86671 | -115.26990 | 28680 ft | 360 kts | 262° |
| 2026-04-26 03:29 | 32.86595 | -115.29937 | 28423 ft | 358 kts | 262° |
| 2026-04-26 03:29 | 32.86513 | -115.32905 | 28160 ft | 356 kts | 261° |
| 2026-04-26 03:30 | 32.86263 | -115.35816 | 27898 ft | 351 kts | 256° |
| 2026-04-26 03:30 | 32.85858 | -115.38641 | 27613 ft | 349 kts | 256° |
| 2026-04-26 03:30 | 32.85451 | -115.41493 | 27093 ft | 348 kts | 256° |
| 2026-04-26 03:30 | 32.85056 | -115.44317 | 26581 ft | 342 kts | 256° |
| 2026-04-26 03:31 | 32.84669 | -115.47097 | 26079 ft | 335 kts | 256° |
| 2026-04-26 03:31 | 32.84293 | -115.49775 | 25611 ft | 328 kts | 255° |
| 2026-04-26 03:31 | 32.83870 | -115.52454 | 25222 ft | 336 kts | 254° |
| 2026-04-26 03:31 | 32.83404 | -115.55218 | 24782 ft | 341 kts | 254° |
| 2026-04-26 03:32 | 32.82942 | -115.57976 | 24360 ft | 337 kts | 255° |
| 2026-04-26 03:32 | 32.82491 | -115.60697 | 23942 ft | 334 kts | 255° |
| 2026-04-26 03:32 | 32.82050 | -115.63373 | 23596 ft | 333 kts | 255° |
| 2026-04-26 03:32 | 32.81605 | -115.66075 | 23139 ft | 333 kts | 255° |
| 2026-04-26 03:33 | 32.81159 | -115.68787 | 22695 ft | 331 kts | 255° |
| 2026-04-26 03:33 | 32.80722 | -115.71445 | 22302 ft | 330 kts | 255° |
| 2026-04-26 03:33 | 32.80280 | -115.74127 | 21889 ft | 331 kts | 255° |
| 2026-04-26 03:33 | 32.79835 | -115.76823 | 21472 ft | 330 kts | 255° |
| 2026-04-26 03:34 | 32.79396 | -115.79477 | 21053 ft | 330 kts | 255° |
| 2026-04-26 03:34 | 32.78953 | -115.82157 | 20640 ft | 329 kts | 255° |
| 2026-04-26 03:34 | 32.78531 | -115.84844 | 20217 ft | 330 kts | 257° |
| 2026-04-26 03:34 | 32.78302 | -115.87570 | 19802 ft | 331 kts | 260° |
| 2026-04-26 03:35 | 32.78109 | -115.90265 | 19390 ft | 330 kts | 260° |
| 2026-04-26 03:35 | 32.77907 | -115.92997 | 18974 ft | 330 kts | 260° |
| 2026-04-26 03:35 | 32.77704 | -115.95714 | 18560 ft | 329 kts | 260° |
| 2026-04-26 03:35 | 32.77500 | -115.98412 | 18147 ft | 328 kts | 261° |
| 2026-04-26 03:36 | 32.77297 | -116.01109 | 17709 ft | 327 kts | 261° |
| 2026-04-26 03:36 | 32.77100 | -116.03753 | 17494 ft | 318 kts | 261° |
| 2026-04-26 03:36 | 32.76909 | -116.06325 | 17361 ft | 303 kts | 260° |
| 2026-04-26 03:36 | 32.76730 | -116.08733 | 17246 ft | 288 kts | 260° |
| 2026-04-26 03:37 | 32.76556 | -116.11062 | 16963 ft | 279 kts | 260° |
| 2026-04-26 03:37 | 32.76378 | -116.13355 | 16349 ft | 278 kts | 260° |
| 2026-04-26 03:37 | 32.76199 | -116.15658 | 15645 ft | 278 kts | 260° |
| 2026-04-26 03:37 | 32.76024 | -116.17919 | 15131 ft | 278 kts | 260° |
| 2026-04-26 03:38 | 32.75848 | -116.20206 | 14815 ft | 272 kts | 260° |
| 2026-04-26 03:38 | 32.75681 | -116.22409 | 14495 ft | 270 kts | 260° |
| 2026-04-26 03:38 | 32.75511 | -116.24641 | 14169 ft | 272 kts | 260° |
| 2026-04-26 03:38 | 32.75334 | -116.26882 | 13843 ft | 271 kts | 260° |
| 2026-04-26 03:39 | 32.75162 | -116.29092 | 13489 ft | 267 kts | 260° |
| 2026-04-26 03:39 | 32.74993 | -116.31286 | 13145 ft | 265 kts | 260° |
| 2026-04-26 03:39 | 32.74825 | -116.33458 | 12818 ft | 263 kts | 260° |
| 2026-04-26 03:39 | 32.74659 | -116.35591 | 12504 ft | 263 kts | 260° |
| 2026-04-26 03:40 | 32.74491 | -116.37743 | 12172 ft | 259 kts | 260° |
| 2026-04-26 03:40 | 32.74327 | -116.39866 | 11864 ft | 259 kts | 260° |
| 2026-04-26 03:40 | 32.74161 | -116.42000 | 11541 ft | 257 kts | 260° |
| 2026-04-26 03:40 | 32.73996 | -116.44116 | 11222 ft | 257 kts | 260° |
| 2026-04-26 03:41 | 32.73829 | -116.46243 | 10905 ft | 259 kts | 260° |
| 2026-04-26 03:41 | 32.73663 | -116.48348 | 10584 ft | 257 kts | 260° |
| 2026-04-26 03:41 | 32.73498 | -116.50457 | 10263 ft | 254 kts | 260° |
| 2026-04-26 03:41 | 32.73312 | -116.52559 | 9948 ft | 255 kts | 259° |
| 2026-04-26 03:42 | 32.73106 | -116.54645 | 9612 ft | 253 kts | 259° |
| 2026-04-26 03:42 | 32.72899 | -116.56688 | 9303 ft | 252 kts | 259° |
| 2026-04-26 03:42 | 32.72688 | -116.58767 | 8989 ft | 254 kts | 260° |
| 2026-04-26 03:42 | 32.72479 | -116.60861 | 8671 ft | 252 kts | 260° |
| 2026-04-26 03:43 | 32.72274 | -116.62936 | 8362 ft | 255 kts | 261° |
| 2026-04-26 03:43 | 32.72070 | -116.64998 | 8060 ft | 253 kts | 261° |
| 2026-04-26 03:43 | 32.71872 | -116.67078 | 7871 ft | 255 kts | 262° |
| 2026-04-26 03:43 | 32.71701 | -116.69179 | 7556 ft | 257 kts | 263° |
| 2026-04-26 03:44 | 32.71540 | -116.71312 | 7104 ft | 259 kts | 264° |
| 2026-04-26 03:44 | 32.71378 | -116.73452 | 6739 ft | 257 kts | 264° |
| 2026-04-26 03:44 | 32.71218 | -116.75549 | 6459 ft | 255 kts | 265° |
| 2026-04-26 03:44 | 32.71059 | -116.77633 | 6138 ft | 257 kts | 265° |
| 2026-04-26 03:45 | 32.70897 | -116.79736 | 5989 ft | 253 kts | 265° |
| 2026-04-26 03:45 | 32.70690 | -116.81749 | 5949 ft | 238 kts | 258° |
| 2026-04-26 03:45 | 32.70201 | -116.83573 | 5851 ft | 226 kts | 249° |
| 2026-04-26 03:45 | 32.69646 | -116.85284 | 5651 ft | 220 kts | 250° |
| 2026-04-26 03:46 | 32.69133 | -116.86926 | 5532 ft | 207 kts | 251° |
| 2026-04-26 03:46 | 32.68642 | -116.88519 | 5254 ft | 204 kts | 251° |
| 2026-04-26 03:46 | 32.68173 | -116.90105 | 4945 ft | 204 kts | 251° |
| 2026-04-26 03:47 | 32.67344 | -116.93292 | 4141 ft | 202 kts | 265° |
| 2026-04-26 03:47 | 32.67489 | -116.94939 | 3744 ft | 200 kts | 284° |
| 2026-04-26 03:47 | 32.67903 | -116.96451 | 3631 ft | 188 kts | 287° |
| 2026-04-26 03:47 | 32.68262 | -116.97893 | 3576 ft | 171 kts | 284° |
| 2026-04-26 03:48 | 32.68574 | -116.99188 | 3471 ft | 159 kts | 284° |
| 2026-04-26 03:48 | 32.68868 | -117.00403 | 3226 ft | 149 kts | 284° |
| 2026-04-26 03:48 | 32.69156 | -117.01603 | 2814 ft | 150 kts | 284° |
| 2026-04-26 03:48 | 32.69445 | -117.02800 | 2693 ft | 152 kts | 284° |
| 2026-04-26 03:49 | 32.69743 | -117.04027 | 2700 ft | 157 kts | 284° |
| 2026-04-26 03:49 | 32.70035 | -117.05243 | 2585 ft | 152 kts | 284° |
| 2026-04-26 03:49 | 32.70330 | -117.06452 | 2497 ft | 152 kts | 284° |
| 2026-04-26 03:49 | 32.70623 | -117.07671 | 2500 ft | 152 kts | 284° |
| 2026-04-26 03:50 | 32.70916 | -117.08884 | 2289 ft | 155 kts | 284° |
| 2026-04-26 03:50 | 32.71211 | -117.10139 | 1857 ft | 159 kts | 284° |
| 2026-04-26 03:50 | 32.71499 | -117.11381 | 1530 ft | 153 kts | 283° |
| 2026-04-26 03:50 | 32.71797 | -117.12588 | 1159 ft | 150 kts | 284° |
| 2026-04-26 03:51 | 32.72087 | -117.13734 | 858 ft | 143 kts | 284° |
| 2026-04-26 03:51 | 32.72361 | -117.14856 | 636 ft | 138 kts | 285° |
| 2026-04-26 03:51 | 32.72626 | -117.15934 | 390 ft | 134 kts | 285° |
| 2026-04-26 03:51 | 32.72880 | -117.17004 | 211 ft | 139 kts | 285° |
| 2026-04-26 03:52 | 32.73148 | -117.18117 | 41 ft | 142 kts | 285° |
| 2026-04-26 03:52 | 32.73391 | -117.19112 | 28 ft | 101 kts | 286° |
| 2026-04-26 03:52 | 32.73537 | -117.19714 | 30 ft | 52 kts | 287° |
| 2026-04-26 03:52 | 32.73621 | -117.20052 | 27 ft | 35 kts | 286° |
| 2026-04-26 03:53 | 32.73621 | -117.20210 | 26 ft | 11 kts | 216° |
| 2026-04-26 03:53 | 32.73565 | -117.20208 | 27 ft | 4 kts | 142° |
| 2026-04-26 03:53 | 32.73553 | -117.20184 | 27 ft | 1 kts | 124° |
| 2026-04-26 03:53 | 32.73541 | -117.20160 | 27 ft | 5 kts | 116° |
| 2026-04-26 03:54 | 32.73518 | -117.20103 | 31 ft | 10 kts | 113° |
| 2026-04-26 03:54 | 32.73476 | -117.20086 | 29 ft | 6 kts | 191° |
| 2026-04-26 03:54 | 32.73435 | -117.20113 | 30 ft | 7 kts | 222° |
| 2026-04-26 03:54 | 32.73414 | -117.20113 | 28 ft | 0 kts | 167° |
| 2026-04-26 03:55 | 32.73409 | -117.20113 | 29 ft | 0 kts | 172° |